Time;durP1;ratioP1;P1;durP2;ratioP2;P2;SDS_P1;SDS_P2;PMS_P1;PMS_P2;Temp;Humidity;BMP_temperature;BMP_pressure;BME280_temperature;BME280_humidity;BME280_pressure;Samples;Min_cycle;Max_cycle;Signal;HPM_P1;HPM_P2
2022/11/09 00:02:17;;;;;;;;;;;8.80;99.90;;;;;;5012056;28;19969;-70
2022/11/09 00:04:44;;;;;;;;;;;8.80;99.90;;;;;;5009871;28;20012;-70
2022/11/09 00:07:11;;;;;;;;;;;8.80;99.90;;;;;;5014076;28;19925;-69
2022/11/09 00:09:38;;;;;;;;;;;8.80;99.90;;;;;;5016421;28;19933;-69
2022/11/09 00:12:06;;;;;;;;;;;8.80;99.90;;;;;;5010687;28;20024;-70
2022/11/09 00:14:35;;;;;;;;;;;8.80;99.90;;;;;;5014489;28;19932;-70
2022/11/09 00:17:02;;;;;;;;;;;8.80;99.90;;;;;;5012320;28;20442;-70
2022/11/09 00:19:29;;;;;;;;;;;8.80;99.90;;;;;;5015402;28;19961;-70
2022/11/09 00:21:56;;;;;;;;;;;8.80;99.90;;;;;;5006233;28;20016;-70
2022/11/09 00:24:23;;;;;;;;;;;8.80;99.90;;;;;;5013280;28;20387;-69
2022/11/09 00:26:49;;;;;;;;;;;8.80;99.90;;;;;;5019309;28;19975;-69
2022/11/09 00:29:17;;;;;;;;;;;8.80;99.90;;;;;;5010367;28;20050;-70
2022/11/09 00:31:44;;;;;;;;;;;8.80;99.90;;;;;;5013637;28;19934;-70
2022/11/09 00:34:11;;;;;;;;;;;8.80;99.90;;;;;;5014464;28;19930;-70
2022/11/09 00:36:38;;;;;;;;;;;8.80;99.90;;;;;;5014579;28;20345;-69
2022/11/09 00:39:08;;;;;;;;;;;8.80;99.90;;;;;;5009639;28;20723;-70
2022/11/09 00:41:35;;;;;;;;;;;8.80;99.90;;;;;;5017213;28;20406;-70
2022/11/09 00:44:02;;;;;;;;;;;8.80;99.90;;;;;;5018519;28;19925;-70
2022/11/09 00:46:30;;;;;;;;;;;8.80;99.90;;;;;;5020428;28;19939;-70
2022/11/09 00:48:57;;;;;;;;;;;8.70;99.90;;;;;;5015922;28;19984;-69
2022/11/09 00:51:24;;;;;;;;;;;8.80;99.90;;;;;;5018670;28;19933;-70
2022/11/09 00:53:56;;;;;;;;;;;8.80;99.90;;;;;;5014104;28;19970;-70
2022/11/09 00:56:23;;;;;;;;;;;8.80;99.90;;;;;;5017669;28;19936;-70
2022/11/09 00:58:52;;;;;;;;;;;8.80;99.90;;;;;;5020733;28;19960;-70
2022/11/09 01:01:19;;;;;;;;;;;8.80;99.90;;;;;;5012937;28;19977;-70
2022/11/09 01:03:48;;;;;;;;;;;8.80;99.90;;;;;;5016317;28;20445;-69
2022/11/09 01:06:16;;;;;;;;;;;8.70;99.90;;;;;;5015993;28;19925;-69
2022/11/09 01:08:43;;;;;;;;;;;8.70;99.90;;;;;;5021837;28;19932;-70
2022/11/09 01:11:10;;;;;;;;;;;8.80;99.90;;;;;;5012855;28;20784;-69
2022/11/09 01:13:37;;;;;;;;;;;8.70;99.90;;;;;;5015936;28;19981;-70
2022/11/09 01:16:08;;;;;;;;;;;8.70;99.90;;;;;;5012686;28;19932;-70
2022/11/09 01:18:36;;;;;;;;;;;8.70;99.90;;;;;;5009035;28;20399;-70
2022/11/09 01:21:05;;;;;;;;;;;8.70;99.90;;;;;;5017738;28;20635;-70
2022/11/09 01:23:32;;;;;;;;;;;8.70;99.90;;;;;;5011172;28;19987;-69
2022/11/09 01:25:59;;;;;;;;;;;8.70;99.90;;;;;;5016312;28;19925;-70
2022/11/09 01:28:26;;;;;;;;;;;8.70;99.90;;;;;;5013403;28;19957;-70
2022/11/09 01:30:53;;;;;;;;;;;8.70;99.90;;;;;;5018667;28;20666;-70
2022/11/09 01:33:20;;;;;;;;;;;8.70;99.90;;;;;;5021701;28;19972;-70
2022/11/09 01:35:47;;;;;;;;;;;8.70;99.90;;;;;;5012375;28;20564;-70
2022/11/09 01:38:15;;;;;;;;;;;8.70;99.90;;;;;;5016651;28;19980;-69
2022/11/09 01:40:42;;;;;;;;;;;8.60;99.90;;;;;;5017041;28;19967;-70
2022/11/09 01:43:14;;;;;;;;;;;8.60;99.90;;;;;;5013213;28;19929;-70
2022/11/09 01:45:42;;;;;;;;;;;8.60;99.90;;;;;;5006047;28;19933;-70
2022/11/09 01:48:12;;;;;;;;;;;8.60;99.90;;;;;;5031861;28;20343;-70
2022/11/09 01:50:41;;;;;;;;;;;8.60;99.90;;;;;;5016842;28;19932;-69
2022/11/09 01:53:12;;;;;;;;;;;8.60;99.90;;;;;;5015615;28;19933;-69
2022/11/09 01:55:41;;;;;;;;;;;8.60;99.90;;;;;;5016139;28;19925;-70
2022/11/09 01:58:10;;;;;;;;;;;8.60;99.90;;;;;;5018006;28;19925;-69
2022/11/09 02:00:38;;;;;;;;;;;8.60;99.90;;;;;;5018152;28;20063;-69
2022/11/09 02:03:07;;;;;;;;;;;8.60;99.90;;;;;;5018166;28;19937;-69
2022/11/09 02:05:36;;;;;;;;;;;8.60;99.90;;;;;;5013735;28;19951;-70
2022/11/09 02:08:04;;;;;;;;;;;8.60;99.90;;;;;;5018362;28;19987;-70
2022/11/09 02:10:35;;;;;;;;;;;8.60;99.90;;;;;;5032099;28;19925;-70
2022/11/09 02:13:03;;;;;;;;;;;8.60;99.90;;;;;;5009233;28;19925;-70
2022/11/09 02:15:36;;;;;;;;;;;8.60;99.90;;;;;;5019686;28;19956;-70
2022/11/09 02:18:03;;;;;;;;;;;8.60;99.90;;;;;;5015663;28;19933;-70
2022/11/09 02:20:43;;;;;;;;;;;8.60;99.90;;;;;;5015482;28;20206;-70
2022/11/09 02:23:10;;;;;;;;;;;8.60;99.90;;;;;;5010796;28;19929;-69
2022/11/09 02:25:37;;;;;;;;;;;8.60;99.90;;;;;;5008656;28;19929;-69
2022/11/09 02:28:05;;;;;;;;;;;8.60;99.90;;;;;;5029380;28;19979;-70
2022/11/09 02:30:33;;;;;;;;;;;8.50;99.90;;;;;;5015007;28;20391;-69
2022/11/09 02:33:00;;;;;;;;;;;8.50;99.90;;;;;;5014590;28;19929;-70
2022/11/09 02:35:27;;;;;;;;;;;8.50;99.90;;;;;;5032309;28;20143;-69
2022/11/09 02:37:55;;;;;;;;;;;8.50;99.90;;;;;;5016724;28;20399;-70
2022/11/09 02:40:26;;;;;;;;;;;8.50;99.90;;;;;;5012805;28;20000;-69
2022/11/09 02:42:54;;;;;;;;;;;8.50;99.90;;;;;;5031927;28;20021;-70
2022/11/09 02:45:21;;;;;;;;;;;8.50;99.90;;;;;;5015104;28;20099;-70
2022/11/09 02:47:48;;;;;;;;;;;8.50;99.90;;;;;;5033916;28;19929;-70
2022/11/09 02:50:15;;;;;;;;;;;8.50;99.90;;;;;;5009368;28;19932;-70
2022/11/09 02:52:42;;;;;;;;;;;8.50;99.90;;;;;;5015502;28;19941;-70
2022/11/09 02:55:11;;;;;;;;;;;8.50;99.90;;;;;;5013566;28;19925;-70
2022/11/09 02:57:39;;;;;;;;;;;8.50;99.90;;;;;;5019516;28;20354;-70
2022/11/09 03:00:07;;;;;;;;;;;8.50;99.90;;;;;;5012898;28;19929;-70
2022/11/09 03:02:35;;;;;;;;;;;8.50;99.90;;;;;;5012160;28;19940;-69
2022/11/09 03:05:02;;;;;;;;;;;8.50;99.90;;;;;;5014855;28;19995;-70
2022/11/09 03:07:31;;;;;;;;;;;8.50;99.90;;;;;;5033144;28;19965;-70
2022/11/09 03:09:58;;;;;;;;;;;8.50;99.90;;;;;;5015247;28;20071;-70
2022/11/09 03:12:30;;;;;;;;;;;8.50;99.90;;;;;;5011598;28;20625;-70
2022/11/09 03:15:05;;;;;;;;;;;8.50;99.90;;;;;;5012385;28;19925;-70
2022/11/09 03:17:33;;;;;;;;;;;8.40;99.90;;;;;;5015641;28;20022;-70
2022/11/09 03:20:00;;;;;;;;;;;8.40;99.90;;;;;;5011815;28;20462;-70
2022/11/09 03:22:27;;;;;;;;;;;8.50;99.90;;;;;;5028575;28;19963;-69
2022/11/09 03:24:55;;;;;;;;;;;8.40;99.90;;;;;;5018009;28;20022;-70
2022/11/09 03:27:21;;;;;;;;;;;8.40;99.90;;;;;;5013426;28;20363;-72
2022/11/09 03:29:50;;;;;;;;;;;8.40;99.90;;;;;;5033982;28;19969;-73
2022/11/09 03:32:17;;;;;;;;;;;8.40;99.90;;;;;;5007985;28;19933;-73
2022/11/09 03:34:45;;;;;;;;;;;8.40;99.90;;;;;;5014398;28;19931;-69
2022/11/09 03:37:13;;;;;;;;;;;8.40;99.90;;;;;;5014203;28;19971;-74
2022/11/09 03:39:40;;;;;;;;;;;8.40;99.90;;;;;;5015507;28;20331;-69
2022/11/09 03:42:07;;;;;;;;;;;8.40;99.90;;;;;;5009123;28;19933;-70
2022/11/09 03:44:36;;;;;;;;;;;8.40;99.90;;;;;;5014679;28;19933;-69
2022/11/09 03:47:04;;;;;;;;;;;8.40;99.90;;;;;;5014151;28;19957;-69
2022/11/09 03:49:31;;;;;;;;;;;8.40;99.90;;;;;;5013582;28;19976;-70
2022/11/09 03:51:58;;;;;;;;;;;8.40;99.90;;;;;;5009711;28;20334;-70
2022/11/09 03:54:24;;;;;;;;;;;8.40;99.90;;;;;;5018033;28;20024;-70
2022/11/09 03:56:51;;;;;;;;;;;8.40;99.90;;;;;;5017442;28;20354;-70
2022/11/09 03:59:18;;;;;;;;;;;8.40;99.90;;;;;;5011606;28;20015;-70
2022/11/09 04:01:45;;;;;;;;;;;8.40;99.90;;;;;;5016687;28;20020;-70
2022/11/09 04:04:13;;;;;;;;;;;8.40;99.90;;;;;;5010933;28;20705;-69
2022/11/09 04:06:40;;;;;;;;;;;8.40;99.90;;;;;;5017760;28;19925;-70
2022/11/09 04:09:06;;;;;;;;;;;8.40;99.90;;;;;;5014089;28;20178;-70
2022/11/09 04:11:33;;;;;;;;;;;8.40;99.90;;;;;;5018624;28;19929;-69
2022/11/09 04:14:00;;;;;;;;;;;8.40;99.90;;;;;;5020304;28;19959;-70
2022/11/09 04:16:27;;;;;;;;;;;8.40;99.90;;;;;;5015081;28;19933;-69
2022/11/09 04:18:54;;;;;;;;;;;8.40;99.90;;;;;;5013360;28;20493;-70
2022/11/09 04:21:22;;;;;;;;;;;8.40;99.90;;;;;;5019537;28;20058;-70
2022/11/09 04:23:49;;;;;;;;;;;8.50;99.90;;;;;;5015062;28;19929;-70
2022/11/09 04:26:16;;;;;;;;;;;8.40;99.90;;;;;;5016993;28;19971;-70
2022/11/09 04:28:43;;;;;;;;;;;8.40;99.90;;;;;;5021347;28;19947;-70
2022/11/09 04:31:09;;;;;;;;;;;8.40;99.90;;;;;;5014031;28;19929;-70
2022/11/09 04:33:36;;;;;;;;;;;8.40;99.90;;;;;;5021438;28;19925;-70
2022/11/09 04:36:04;;;;;;;;;;;8.40;99.90;;;;;;5013039;28;19937;-70
2022/11/09 04:38:32;;;;;;;;;;;8.40;99.90;;;;;;5013843;28;19929;-70
2022/11/09 04:41:02;;;;;;;;;;;8.40;99.90;;;;;;5013927;28;19924;-70
2022/11/09 04:43:29;;;;;;;;;;;8.40;99.90;;;;;;5023074;28;19933;-70
2022/11/09 04:45:59;;;;;;;;;;;8.50;99.90;;;;;;5019171;28;20391;-70
2022/11/09 04:48:25;;;;;;;;;;;8.50;99.90;;;;;;5021301;28;19925;-70
2022/11/09 04:50:52;;;;;;;;;;;8.50;99.90;;;;;;5022900;28;19955;-70
2022/11/09 04:53:19;;;;;;;;;;;8.50;99.90;;;;;;5019212;28;19929;-72
2022/11/09 04:55:48;;;;;;;;;;;8.50;99.90;;;;;;5016279;28;19940;-72
2022/11/09 04:58:14;;;;;;;;;;;8.50;99.90;;;;;;5014401;28;20024;-73
2022/11/09 05:00:41;;;;;;;;;;;8.50;99.90;;;;;;5020600;28;19940;-72
2022/11/09 05:03:08;;;;;;;;;;;8.50;99.90;;;;;;5015450;28;19978;-72
2022/11/09 05:05:36;;;;;;;;;;;8.50;99.90;;;;;;5021598;28;20025;-72
2022/11/09 05:08:02;;;;;;;;;;;8.50;99.90;;;;;;5018930;28;20029;-72
2022/11/09 05:10:30;;;;;;;;;;;8.50;99.90;;;;;;5024552;28;20227;-72
2022/11/09 05:12:59;;;;;;;;;;;8.40;99.90;;;;;;5015530;28;19925;-72
2022/11/09 05:15:26;;;;;;;;;;;8.50;99.90;;;;;;5024084;28;20307;-72
2022/11/09 05:17:53;;;;;;;;;;;8.50;99.90;;;;;;5021964;28;19925;-72
2022/11/09 05:20:20;;;;;;;;;;;8.50;99.90;;;;;;5016664;28;19980;-72
2022/11/09 05:25:31;;;;;;;;;;;8.60;99.90;;;;;;5018132;28;20307;-72
2022/11/09 05:27:59;;;;;;;;;;;8.50;99.90;;;;;;5018919;28;20574;-74
2022/11/09 05:30:26;;;;;;;;;;;8.50;99.90;;;;;;5017914;28;20018;-76
2022/11/09 05:32:53;;;;;;;;;;;8.60;99.90;;;;;;5020354;28;19933;-71
2022/11/09 05:35:20;;;;;;;;;;;8.60;99.90;;;;;;5028253;28;19933;-72
2022/11/09 05:37:47;;;;;;;;;;;8.60;99.90;;;;;;5019249;28;20361;-71
2022/11/09 05:40:15;;;;;;;;;;;8.60;99.90;;;;;;5018453;28;19926;-72
2022/11/09 05:42:42;;;;;;;;;;;8.60;99.90;;;;;;5020589;28;19937;-71
2022/11/09 05:45:11;;;;;;;;;;;8.60;99.90;;;;;;5018651;28;20014;-74
2022/11/09 05:47:38;;;;;;;;;;;8.60;99.90;;;;;;5012570;28;20027;-71
2022/11/09 05:50:06;;;;;;;;;;;8.60;99.90;;;;;;5018668;28;20307;-75
2022/11/09 05:52:33;;;;;;;;;;;8.60;99.90;;;;;;5021320;28;20012;-72
2022/11/09 05:55:00;;;;;;;;;;;8.60;99.90;;;;;;5023041;28;19925;-77
2022/11/09 05:57:27;;;;;;;;;;;8.60;99.90;;;;;;5017537;28;19936;-72
2022/11/09 05:59:54;;;;;;;;;;;8.60;99.90;;;;;;5016451;28;19976;-75
2022/11/09 06:02:22;;;;;;;;;;;8.60;99.90;;;;;;5018045;28;19933;-73
2022/11/09 06:04:49;;;;;;;;;;;8.60;99.90;;;;;;5015529;28;20121;-72
2022/11/09 06:07:16;;;;;;;;;;;8.60;99.90;;;;;;5022125;28;19977;-72
2022/11/09 06:09:43;;;;;;;;;;;8.60;99.90;;;;;;5019685;28;20390;-73
2022/11/09 06:12:10;;;;;;;;;;;8.60;99.90;;;;;;5013679;28;19929;-73
2022/11/09 06:14:37;;;;;;;;;;;8.60;99.90;;;;;;5027922;28;20413;-72
2022/11/09 06:17:03;;;;;;;;;;;8.60;99.90;;;;;;5017224;28;19933;-73
2022/11/09 06:19:32;;;;;;;;;;;8.60;99.90;;;;;;5022926;28;19944;-73
2022/11/09 06:21:58;;;;;;;;;;;8.60;99.90;;;;;;5013423;28;20012;-73
2022/11/09 06:24:25;;;;;;;;;;;8.60;99.90;;;;;;5021865;28;20104;-76
2022/11/09 06:26:52;;;;;;;;;;;8.60;99.90;;;;;;5022779;28;20438;-72
2022/11/09 06:29:19;;;;;;;;;;;8.60;99.90;;;;;;5016063;28;19944;-72
2022/11/09 06:31:47;;;;;;;;;;;8.60;99.90;;;;;;5021211;28;19935;-72
2022/11/09 06:34:14;;;;;;;;;;;8.60;99.90;;;;;;5017540;28;19942;-72
2022/11/09 06:36:43;;;;;;;;;;;8.60;99.90;;;;;;5016678;28;20448;-70
2022/11/09 06:39:09;;;;;;;;;;;8.60;99.90;;;;;;5018865;28;20529;-76
2022/11/09 06:41:36;;;;;;;;;;;8.60;99.90;;;;;;5012974;28;19933;-71
2022/11/09 06:44:04;;;;;;;;;;;8.60;99.90;;;;;;5014119;28;19995;-71
2022/11/09 06:46:31;;;;;;;;;;;8.70;99.90;;;;;;5013198;28;19926;-72
2022/11/09 06:48:58;;;;;;;;;;;8.60;99.90;;;;;;5019754;28;19957;-72
2022/11/09 06:51:24;;;;;;;;;;;8.60;99.90;;;;;;5021822;28;19935;-72
2022/11/09 06:53:53;;;;;;;;;;;8.60;99.90;;;;;;5013388;28;19988;-71
2022/11/09 06:56:20;;;;;;;;;;;8.70;99.90;;;;;;5024702;28;19936;-71
2022/11/09 06:58:46;;;;;;;;;;;8.60;99.90;;;;;;5012420;28;20731;-71
2022/11/09 07:01:15;;;;;;;;;;;8.70;99.90;;;;;;5019671;28;20353;-70
2022/11/09 07:03:43;;;;;;;;;;;8.60;99.90;;;;;;5016214;28;20059;-69
2022/11/09 07:06:11;;;;;;;;;;;8.60;99.90;;;;;;5019296;28;19968;-70
2022/11/09 07:08:38;;;;;;;;;;;8.70;99.90;;;;;;5020407;28;20596;-70
2022/11/09 07:11:07;;;;;;;;;;;8.60;99.90;;;;;;5004923;28;19965;-70
2022/11/09 07:13:33;;;;;;;;;;;8.60;99.90;;;;;;5012855;28;19960;-70
2022/11/09 07:16:00;;;;;;;;;;;8.70;99.90;;;;;;5013590;28;19988;-72
2022/11/09 07:18:27;;;;;;;;;;;8.70;99.90;;;;;;5016733;28;20393;-71
2022/11/09 07:20:54;;;;;;;;;;;8.70;99.90;;;;;;5012252;28;19929;-72
2022/11/09 07:23:21;;;;;;;;;;;8.70;99.90;;;;;;5004412;28;20450;-76
2022/11/09 07:25:48;;;;;;;;;;;8.70;99.90;;;;;;5018270;28;20457;-73
2022/11/09 07:28:16;;;;;;;;;;;8.60;99.90;;;;;;5020391;28;19983;-81
2022/11/09 07:30:43;;;;;;;;;;;8.70;99.90;;;;;;5011655;28;19929;-73
2022/11/09 07:33:13;;;;;;;;;;;8.70;99.90;;;;;;5019845;28;19968;-72
2022/11/09 07:35:40;;;;;;;;;;;8.70;99.90;;;;;;5016911;28;20468;-73
2022/11/09 07:38:07;;;;;;;;;;;8.70;99.90;;;;;;5019028;28;19932;-73
2022/11/09 07:40:34;;;;;;;;;;;8.70;99.90;;;;;;5014876;28;19932;-73
2022/11/09 07:43:01;;;;;;;;;;;8.70;99.90;;;;;;5016511;28;19931;-72
2022/11/09 07:45:30;;;;;;;;;;;8.70;99.90;;;;;;5018085;28;20415;-72
2022/11/09 07:47:57;;;;;;;;;;;8.80;99.90;;;;;;5018151;28;19925;-72
2022/11/09 07:50:24;;;;;;;;;;;8.80;99.90;;;;;;5017904;28;19935;-73
2022/11/09 07:52:51;;;;;;;;;;;8.90;99.90;;;;;;5014411;28;19926;-74
2022/11/09 07:55:18;;;;;;;;;;;8.80;99.90;;;;;;5016935;28;19977;-73
2022/11/09 07:57:46;;;;;;;;;;;8.80;99.90;;;;;;5019805;28;20019;-73
2022/11/09 08:00:13;;;;;;;;;;;8.80;99.90;;;;;;5020516;28;20032;-73
2022/11/09 08:02:41;;;;;;;;;;;8.80;99.90;;;;;;5016428;28;19979;-72
2022/11/09 08:05:08;;;;;;;;;;;8.80;99.90;;;;;;5024958;28;19929;-73
2022/11/09 08:07:36;;;;;;;;;;;8.80;99.90;;;;;;5017270;28;20845;-73
2022/11/09 08:10:03;;;;;;;;;;;8.90;99.90;;;;;;5022610;28;19969;-73
2022/11/09 08:12:30;;;;;;;;;;;8.90;99.90;;;;;;5022619;28;19953;-73
2022/11/09 08:14:57;;;;;;;;;;;8.90;99.90;;;;;;5020602;28;19980;-75
2022/11/09 08:17:24;;;;;;;;;;;8.90;99.90;;;;;;5013418;28;19932;-73
2022/11/09 08:19:52;;;;;;;;;;;8.90;99.90;;;;;;5021215;28;20343;-73
2022/11/09 08:22:19;;;;;;;;;;;8.90;99.90;;;;;;5025311;28;19964;-73
2022/11/09 08:24:46;;;;;;;;;;;9.00;99.90;;;;;;5021751;28;20102;-73
2022/11/09 08:27:12;;;;;;;;;;;9.00;99.90;;;;;;5020590;28;19937;-73
2022/11/09 08:29:39;;;;;;;;;;;9.00;99.90;;;;;;5024513;28;19960;-73
2022/11/09 08:32:06;;;;;;;;;;;9.10;99.90;;;;;;5018730;28;20459;-73
2022/11/09 08:34:33;;;;;;;;;;;9.10;99.90;;;;;;5017156;28;20441;-71
2022/11/09 08:37:01;;;;;;;;;;;9.20;99.90;;;;;;5021180;28;21259;-73
2022/11/09 08:39:28;;;;;;;;;;;9.20;99.90;;;;;;5025635;28;20353;-73
2022/11/09 08:41:55;;;;;;;;;;;9.20;99.90;;;;;;5020510;28;19929;-73
2022/11/09 08:44:22;;;;;;;;;;;9.20;99.90;;;;;;5020149;28;20356;-73
2022/11/09 08:46:49;;;;;;;;;;;9.20;99.90;;;;;;5025121;28;19925;-73
2022/11/09 08:49:16;;;;;;;;;;;9.20;99.90;;;;;;5022620;28;20472;-74
2022/11/09 08:51:43;;;;;;;;;;;9.20;99.90;;;;;;5021454;28;19925;-73
2022/11/09 08:54:12;;;;;;;;;;;9.30;99.90;;;;;;5019498;28;19929;-73
2022/11/09 08:56:39;;;;;;;;;;;9.30;99.90;;;;;;5021701;28;19925;-73
2022/11/09 08:59:06;;;;;;;;;;;9.30;99.90;;;;;;5019946;28;19960;-74
2022/11/09 09:01:33;;;;;;;;;;;9.40;99.90;;;;;;5018831;28;19981;-73
2022/11/09 09:04:00;;;;;;;;;;;9.40;99.90;;;;;;5019034;28;19933;-73
2022/11/09 09:06:26;;;;;;;;;;;9.40;99.90;;;;;;5022418;28;19940;-73
2022/11/09 09:08:53;;;;;;;;;;;9.40;99.90;;;;;;5022941;28;19948;-73
2022/11/09 09:11:21;;;;;;;;;;;9.40;99.90;;;;;;5018270;28;20022;-73
2022/11/09 09:13:48;;;;;;;;;;;9.40;99.90;;;;;;5019100;28;19933;-73
2022/11/09 09:16:15;;;;;;;;;;;9.40;99.90;;;;;;5019874;28;20391;-73
2022/11/09 09:18:43;;;;;;;;;;;9.40;99.90;;;;;;5011049;28;19929;-73
2022/11/09 09:21:10;;;;;;;;;;;9.40;99.90;;;;;;5017647;28;20411;-73
2022/11/09 09:23:37;;;;;;;;;;;9.40;99.90;;;;;;5014335;28;20516;-73
2022/11/09 09:26:04;;;;;;;;;;;9.40;99.90;;;;;;5018161;28;19994;-73
2022/11/09 09:28:32;;;;;;;;;;;9.50;99.90;;;;;;5035291;28;20280;-73
2022/11/09 09:30:59;;;;;;;;;;;9.50;99.90;;;;;;5014780;28;20016;-73
2022/11/09 09:33:26;;;;;;;;;;;9.50;99.90;;;;;;5016708;28;19932;-73
2022/11/09 09:35:54;;;;;;;;;;;9.60;99.90;;;;;;5015565;28;19929;-73
2022/11/09 09:38:21;;;;;;;;;;;9.60;99.90;;;;;;5017385;28;19925;-74
2022/11/09 09:40:57;;;;;;;;;;;9.60;99.90;;;;;;5022124;28;19971;-74
2022/11/09 09:43:27;;;;;;;;;;;9.60;99.90;;;;;;5024279;28;19932;-73
2022/11/09 09:45:56;;;;;;;;;;;9.60;99.90;;;;;;5020676;28;20030;-73
2022/11/09 09:48:28;;;;;;;;;;;9.60;99.90;;;;;;5020948;28;20438;-73
2022/11/09 09:50:57;;;;;;;;;;;9.60;99.90;;;;;;5017675;28;19925;-73
2022/11/09 09:53:30;;;;;;;;;;;9.60;99.90;;;;;;5015117;28;20292;-73
2022/11/09 09:56:00;;;;;;;;;;;9.60;99.90;;;;;;5020325;28;20004;-73
2022/11/09 09:58:28;;;;;;;;;;;9.70;99.90;;;;;;5021558;28;19925;-73
2022/11/09 10:00:58;;;;;;;;;;;9.70;99.90;;;;;;5018369;28;20024;-72
2022/11/09 10:03:25;;;;;;;;;;;9.70;99.90;;;;;;5021461;28;19932;-73
2022/11/09 10:05:55;;;;;;;;;;;9.70;99.90;;;;;;5019263;28;19932;-73
2022/11/09 10:08:26;;;;;;;;;;;9.70;99.90;;;;;;5023711;28;19968;-73
2022/11/09 10:11:00;;;;;;;;;;;9.70;99.90;;;;;;5021366;28;20437;-73
2022/11/09 10:13:39;;;;;;;;;;;9.80;99.90;;;;;;5021844;28;19929;-72
2022/11/09 10:16:10;;;;;;;;;;;9.80;99.90;;;;;;5018410;28;19933;-73
2022/11/09 10:18:37;;;;;;;;;;;;;;;;;;5015096;28;19926;-73
2022/11/09 10:21:11;;;;;;;;;;;9.80;99.90;;;;;;5021962;28;20021;-73
2022/11/09 10:23:40;;;;;;;;;;;9.90;99.90;;;;;;5023099;28;19925;-73
2022/11/09 10:26:13;;;;;;;;;;;9.90;99.90;;;;;;5019108;28;20333;-73
2022/11/09 10:28:42;;;;;;;;;;;9.90;99.90;;;;;;5021425;28;19925;-73
2022/11/09 10:31:14;;;;;;;;;;;10.00;99.90;;;;;;5023642;28;20012;-73
2022/11/09 10:33:40;;;;;;;;;;;9.90;99.90;;;;;;5022547;28;19925;-73
2022/11/09 10:36:11;;;;;;;;;;;10.00;99.90;;;;;;5015806;28;20211;-73
2022/11/09 10:38:40;;;;;;;;;;;10.00;99.90;;;;;;5020408;28;19991;-73
2022/11/09 10:41:29;;;;;;;;;;;10.10;99.90;;;;;;5024616;28;19991;-73
2022/11/09 10:44:15;;;;;;;;;;;10.10;99.90;;;;;;5024233;28;20072;-73
2022/11/09 10:47:03;;;;;;;;;;;10.20;99.90;;;;;;5017437;28;19939;-73
2022/11/09 10:50:05;;;;;;;;;;;10.20;99.90;;;;;;5023914;28;20302;-73
2022/11/09 10:52:50;;;;;;;;;;;10.20;99.90;;;;;;5017615;28;20311;-74
2022/11/09 10:55:36;;;;;;;;;;;10.20;99.90;;;;;;5012019;28;19956;-73
2022/11/09 10:58:39;;;;;;;;;;;10.30;99.90;;;;;;5020379;28;20678;-72
2022/11/09 11:01:25;;;;;;;;;;;10.30;99.90;;;;;;5016202;28;19996;-73
2022/11/09 11:04:19;;;;;;;;;;;10.30;99.90;;;;;;5018932;28;20065;-73
2022/11/09 11:07:13;;;;;;;;;;;10.30;99.90;;;;;;5021011;28;21041;-73
2022/11/09 11:10:08;;;;;;;;;;;10.30;99.90;;;;;;5015798;28;19933;-73
2022/11/09 11:13:18;;;;;;;;;;;10.40;99.90;;;;;;5019605;28;19933;-73
2022/11/09 11:16:13;;;;;;;;;;;10.40;99.90;;;;;;5020410;28;19955;-73
2022/11/09 11:18:58;;;;;;;;;;;10.40;99.90;;;;;;5019330;28;19932;-73
2022/11/09 11:21:45;;;;;;;;;;;10.40;99.90;;;;;;5020517;28;19933;-73
2022/11/09 11:24:40;;;;;;;;;;;10.50;99.90;;;;;;5018613;28;19936;-73
2022/11/09 11:27:28;;;;;;;;;;;10.50;99.90;;;;;;5018153;28;20026;-73
2022/11/09 11:30:15;;;;;;;;;;;10.60;99.90;;;;;;5022229;28;19936;-80
2022/11/09 11:33:01;;;;;;;;;;;10.50;99.90;;;;;;5019107;28;19940;-75
2022/11/09 11:35:49;;;;;;;;;;;10.50;99.90;;;;;;5023027;28;19932;-73
2022/11/09 11:38:38;;;;;;;;;;;10.60;99.90;;;;;;5011898;28;19936;-73
2022/11/09 11:41:41;;;;;;;;;;;10.60;99.90;;;;;;5019007;28;19979;-73
2022/11/09 11:44:45;;;;;;;;;;;10.60;99.90;;;;;;5022432;28;20018;-73
2022/11/09 11:47:35;;;;;;;;;;;10.60;99.90;;;;;;5013193;28;19932;-73
2022/11/09 11:50:24;;;;;;;;;;;10.70;99.90;;;;;;5016698;28;19932;-73
2022/11/09 11:53:14;;;;;;;;;;;10.70;99.90;;;;;;5018754;28;20024;-73
2022/11/09 11:56:14;;;;;;;;;;;10.70;99.90;;;;;;5015697;28;19933;-73
2022/11/09 11:59:10;;;;;;;;;;;10.70;99.90;;;;;;5019649;28;19939;-73
2022/11/09 12:02:01;;;;;;;;;;;10.70;99.90;;;;;;5016409;28;19995;-73
2022/11/09 12:04:59;;;;;;;;;;;10.70;99.90;;;;;;5014449;28;20081;-73
2022/11/09 12:07:50;;;;;;;;;;;10.70;99.90;;;;;;5016395;28;20374;-73
2022/11/09 12:10:43;;;;;;;;;;;10.80;99.90;;;;;;5020507;28;20083;-73
2022/11/09 12:13:39;;;;;;;;;;;10.80;99.90;;;;;;5019641;28;19932;-73
2022/11/09 12:16:28;;;;;;;;;;;10.80;99.90;;;;;;5017167;28;19936;-73
2022/11/09 12:19:28;;;;;;;;;;;10.80;99.90;;;;;;5015938;28;20318;-73
2022/11/09 12:22:17;;;;;;;;;;;10.90;99.90;;;;;;5015449;28;19932;-71
2022/11/09 12:25:09;;;;;;;;;;;10.90;99.90;;;;;;5015609;28;20033;-73
2022/11/09 12:28:02;;;;;;;;;;;10.90;99.90;;;;;;5020097;28;19932;-72
2022/11/09 12:30:52;;;;;;;;;;;10.90;99.90;;;;;;5020748;28;20725;-73
2022/11/09 12:33:42;;;;;;;;;;;11.00;99.90;;;;;;5019625;28;19932;-73
2022/11/09 12:36:34;;;;;;;;;;;11.00;99.90;;;;;;5013591;28;19931;-74
2022/11/09 12:39:21;;;;;;;;;;;11.10;99.90;;;;;;5016681;28;19948;-73
2022/11/09 12:42:09;;;;;;;;;;;11.10;99.90;;;;;;5024154;28;20015;-72
2022/11/09 12:44:58;;;;;;;;;;;11.10;99.90;;;;;;5020454;28;20010;-78
2022/11/09 12:47:45;;;;;;;;;;;11.10;99.90;;;;;;5014709;28;19947;-74
2022/11/09 12:50:31;;;;;;;;;;;11.20;99.90;;;;;;5021917;28;19936;-72
2022/11/09 12:53:17;;;;;;;;;;;11.20;99.90;;;;;;5015808;28;19956;-74
2022/11/09 12:56:06;;;;;;;;;;;11.30;99.90;;;;;;5018346;28;19940;-74
2022/11/09 12:58:51;;;;;;;;;;;11.30;99.90;;;;;;5022846;28;19937;-74
2022/11/09 13:01:48;;;;;;;;;;;11.30;99.90;;;;;;5020294;28;19940;-74
2022/11/09 13:04:35;;;;;;;;;;;11.30;99.90;;;;;;5019135;28;20443;-74
2022/11/09 13:07:39;;;;;;;;;;;11.30;99.90;;;;;;5021749;28;19931;-74
2022/11/09 13:10:26;;;;;;;;;;;11.40;99.90;;;;;;5022178;28;19932;-77
2022/11/09 13:13:23;;;;;;;;;;;11.40;99.90;;;;;;5026774;28;19945;-75
2022/11/09 13:16:10;;;;;;;;;;;11.40;99.90;;;;;;5019971;28;21484;-75
2022/11/09 13:18:56;;;;;;;;;;;11.40;99.90;;;;;;5014021;28;20535;-74
2022/11/09 13:21:42;;;;;;;;;;;11.50;99.90;;;;;;5012196;28;19940;-74
2022/11/09 13:24:52;;;;;;;;;;;11.50;99.90;;;;;;5019781;28;20410;-74
2022/11/09 13:27:39;;;;;;;;;;;11.50;99.90;;;;;;5010044;28;19956;-74
2022/11/09 13:30:38;;;;;;;;;;;11.50;99.90;;;;;;5023013;28;19960;-73
2022/11/09 13:33:24;;;;;;;;;;;11.50;99.90;;;;;;5017484;28;19940;-75
2022/11/09 13:36:14;;;;;;;;;;;11.70;99.90;;;;;;5021346;28;20554;-74
2022/11/09 13:39:00;;;;;;;;;;;;;;;;;;5023379;28;20047;-74
2022/11/09 13:41:47;;;;;;;;;;;11.60;99.90;;;;;;5018545;28;19932;-75
2022/11/09 13:44:33;;;;;;;;;;;11.60;99.90;;;;;;5014933;28;20000;-75
2022/11/09 13:47:21;;;;;;;;;;;11.60;99.90;;;;;;5009549;28;20333;-78
2022/11/09 13:50:11;;;;;;;;;;;11.60;99.90;;;;;;5018937;28;20681;-73
2022/11/09 13:52:57;;;;;;;;;;;11.70;99.90;;;;;;5010354;28;19944;-73
2022/11/09 13:55:42;;;;;;;;;;;11.70;99.90;;;;;;5026305;28;19971;-74
2022/11/09 13:58:32;;;;;;;;;;;11.70;99.90;;;;;;5011508;28;19979;-74
2022/11/09 14:01:24;;;;;;;;;;;11.70;99.90;;;;;;5016416;28;19986;-74
2022/11/09 14:04:20;;;;;;;;;;;11.80;99.90;;;;;;5018558;28;20532;-74
2022/11/09 14:07:06;;;;;;;;;;;11.80;99.90;;;;;;5017135;28;19979;-74
2022/11/09 14:09:54;;;;;;;;;;;11.80;99.90;;;;;;5016618;28;19948;-74
2022/11/09 14:12:45;;;;;;;;;;;11.80;99.90;;;;;;5020095;28;19987;-74
2022/11/09 14:15:39;;;;;;;;;;;11.80;99.90;;;;;;5025387;28;20058;-74
2022/11/09 14:18:31;;;;;;;;;;;11.90;99.90;;;;;;5018937;28;19940;-74
2022/11/09 14:21:34;;;;;;;;;;;11.90;99.90;;;;;;5022118;28;20423;-74
2022/11/09 14:24:20;;;;;;;;;;;11.90;99.90;;;;;;5025814;28;19971;-74
2022/11/09 14:27:13;;;;;;;;;;;11.90;99.90;;;;;;5020018;28;19979;-74
2022/11/09 14:30:00;;;;;;;;;;;11.90;99.90;;;;;;5021237;28;19941;-75
2022/11/09 14:32:48;;;;;;;;;;;11.90;99.90;;;;;;5018731;28;19979;-75
2022/11/09 14:35:35;;;;;;;;;;;11.90;99.90;;;;;;5018958;28;19932;-75
2022/11/09 14:38:22;;;;;;;;;;;11.90;99.90;;;;;;5017685;28;19932;-74
2022/11/09 14:41:17;;;;;;;;;;;11.90;99.90;;;;;;5027388;28;19952;-74
2022/11/09 14:44:02;;;;;;;;;;;12.00;99.90;;;;;;5019285;28;19931;-74
2022/11/09 14:46:51;;;;;;;;;;;12.00;99.90;;;;;;5019793;28;19932;-74
2022/11/09 14:49:39;;;;;;;;;;;12.00;99.90;;;;;;5022731;28;20464;-74
2022/11/09 14:52:27;;;;;;;;;;;12.00;99.90;;;;;;5016229;28;20456;-74
2022/11/09 14:55:13;;;;;;;;;;;12.00;99.90;;;;;;5021163;28;19940;-74
2022/11/09 14:57:59;;;;;;;;;;;12.00;99.90;;;;;;5016398;28;20079;-75
2022/11/09 15:00:44;;;;;;;;;;;12.00;99.90;;;;;;5023348;28;19947;-76
2022/11/09 15:03:30;;;;;;;;;;;12.00;99.90;;;;;;5022200;28;20308;-76
2022/11/09 15:06:17;;;;;;;;;;;12.00;99.90;;;;;;5018723;28;20407;-74
2022/11/09 15:09:05;;;;;;;;;;;12.00;99.90;;;;;;5016210;28;19966;-75